createdAt,value
2023-05-06T00:02:57.569Z,15.70
2023-05-06T00:13:00.805Z,13.70
2023-05-06T00:23:03.949Z,10.10
2023-05-06T00:33:07.385Z,8.90
2023-05-06T00:43:10.748Z,8.40
2023-05-06T00:53:14.211Z,11.40
2023-05-06T01:03:17.562Z,10.10
2023-05-06T01:14:01.618Z,9.10
2023-05-06T01:24:04.944Z,10.10
2023-05-06T01:34:24.215Z,8.10
2023-05-06T01:44:29.565Z,6.50
2023-05-06T01:54:32.767Z,10.10
2023-05-06T02:04:38.002Z,9.60
2023-05-06T02:14:41.907Z,8.20
2023-05-06T02:24:45.049Z,10.00
2023-05-06T02:34:49.469Z,9.00
2023-05-06T02:44:52.593Z,9.60
2023-05-06T02:54:55.957Z,10.80
2023-05-06T03:04:59.257Z,11.00
2023-05-06T03:15:02.644Z,7.10
2023-05-06T03:25:06.432Z,8.70
2023-05-06T03:35:11.698Z,9.70
2023-05-06T03:45:17.863Z,7.40
2023-05-06T03:55:21.727Z,7.50
2023-05-06T04:05:26.156Z,13.10
2023-05-06T04:15:32.431Z,6.60
2023-05-06T04:25:38.143Z,13.60
2023-05-06T04:35:53.943Z,11.10
2023-05-06T04:45:57.437Z,11.00
2023-05-06T04:56:03.535Z,9.30
2023-05-06T05:06:07.890Z,8.00
2023-05-06T05:16:12.263Z,10.50
2023-05-06T05:26:16.654Z,11.00
2023-05-06T05:36:22.020Z,11.80
2023-05-06T05:46:26.784Z,11.60
2023-05-06T05:56:31.073Z,8.20
2023-05-06T06:06:35.371Z,9.60
2023-05-06T06:16:38.952Z,7.60
2023-05-06T06:26:42.349Z,5.80
2023-05-06T06:36:45.895Z,6.50
2023-05-06T06:46:49.091Z,8.40
2023-05-06T06:56:56.605Z,7.20
2023-05-06T07:06:59.944Z,7.50
2023-05-06T07:17:03.302Z,6.20
2023-05-06T07:27:07.235Z,7.10
2023-05-06T07:37:10.538Z,6.40
2023-05-06T07:47:27.589Z,10.50
2023-05-06T07:57:31.106Z,7.10
2023-05-06T08:07:34.385Z,5.80
2023-05-06T08:17:37.482Z,5.20
2023-05-06T08:27:40.965Z,5.10
2023-05-06T08:37:44.114Z,4.60
2023-05-06T08:47:47.848Z,5.40
2023-05-06T08:57:53.386Z,7.50
2023-05-06T09:07:56.681Z,6.60
2023-05-06T09:18:00.974Z,7.00
2023-05-06T09:28:10.178Z,6.70
2023-05-06T09:38:13.339Z,7.50
2023-05-06T09:48:16.729Z,5.40
2023-05-06T09:58:22.644Z,6.00
2023-05-06T10:08:27.166Z,4.50
2023-05-06T10:18:31.170Z,4.90
2023-05-06T10:28:41.177Z,7.90
2023-05-06T10:38:49.362Z,7.90
2023-05-06T10:49:04.872Z,8.20
2023-05-06T10:59:09.171Z,6.90
2023-05-06T11:09:23.612Z,7.30
2023-05-06T11:19:31.074Z,7.00
2023-05-06T11:29:34.274Z,7.70
2023-05-06T11:39:40.888Z,6.50
2023-05-06T11:59:54.813Z,9.10
2023-05-06T12:09:59.279Z,10.10
2023-05-06T12:20:02.949Z,14.70
2023-05-06T12:30:09.457Z,13.20
2023-05-06T12:40:17.880Z,14.80
2023-05-06T12:50:39.312Z,11.30
2023-05-06T13:00:42.466Z,12.20
2023-05-06T13:10:45.917Z,13.20
2023-05-06T13:21:02.469Z,12.80
2023-05-06T13:31:18.198Z,11.10
2023-05-06T13:41:25.520Z,7.80
2023-05-06T13:51:30.947Z,11.10
2023-05-06T14:01:34.283Z,8.80
2023-05-06T14:11:37.534Z,7.90
2023-05-06T14:21:40.651Z,7.50
2023-05-06T14:31:43.866Z,8.50
2023-05-06T14:41:47.284Z,7.40
2023-05-06T14:51:50.527Z,5.70
2023-05-06T15:01:53.590Z,9.60
2023-05-06T15:11:57.686Z,5.90
2023-05-06T15:22:01.060Z,5.90
2023-05-06T15:32:19.359Z,5.80
2023-05-06T15:42:24.231Z,5.80
2023-05-06T15:52:27.352Z,7.00
2023-05-06T16:02:31.005Z,7.10
2023-05-06T16:12:34.661Z,6.50
2023-05-06T16:22:40.758Z,6.80
2023-05-06T16:32:44.358Z,7.40
2023-05-06T16:42:51.149Z,8.60
2023-05-06T16:52:54.290Z,8.40
2023-05-06T17:02:58.965Z,8.80
2023-05-06T17:13:03.290Z,9.00
2023-05-06T17:23:08.969Z,15.40
2023-05-06T17:33:12.114Z,10.90
2023-05-06T17:43:15.476Z,16.10
2023-05-06T17:53:18.509Z,15.60
2023-05-06T18:03:22.743Z,13.70
2023-05-06T18:13:27.348Z,12.10
2023-05-06T18:23:30.738Z,14.00
2023-05-06T18:33:36.007Z,16.10
2023-05-06T18:43:39.186Z,18.60
2023-05-06T18:53:43.174Z,21.70
2023-05-06T19:03:47.019Z,15.10
2023-05-06T19:13:52.669Z,22.30
2023-05-06T19:23:59.949Z,16.20
2023-05-06T19:34:04.141Z,18.60
2023-05-06T19:44:07.527Z,13.40
2023-05-06T19:54:10.569Z,10.50
2023-05-06T20:04:13.751Z,10.40
2023-05-06T20:14:16.909Z,16.30
2023-05-06T20:24:20.392Z,10.20
2023-05-06T20:34:24.202Z,12.70
2023-05-06T20:44:27.536Z,10.60
2023-05-06T20:54:30.557Z,16.30
2023-05-06T21:04:33.970Z,15.60
2023-05-06T21:14:38.029Z,24.60
2023-05-06T21:24:41.080Z,15.10
2023-05-06T21:34:46.887Z,10.50
2023-05-06T21:44:50.394Z,12.80
2023-05-06T21:54:53.632Z,11.60
2023-05-06T22:04:56.813Z,15.90
2023-05-06T22:15:00.072Z,12.60
2023-05-06T22:25:04.024Z,15.40
2023-05-06T22:35:08.674Z,16.10
2023-05-06T22:45:12.322Z,13.10
2023-05-06T22:55:16.291Z,13.60
2023-05-06T23:05:19.447Z,10.50
2023-05-06T23:15:23.402Z,10.70
2023-05-06T23:25:27.690Z,13.60
2023-05-06T23:35:30.852Z,12.90
2023-05-06T23:45:34.033Z,14.60
2023-05-06T23:55:37.584Z,26.40
